createdAt,value
2019-03-31T00:01:16.642Z,67.04
2019-03-31T00:03:45.042Z,66.89
2019-03-31T00:06:13.431Z,67.31
2019-03-31T00:08:41.841Z,67.62
2019-03-31T00:11:10.231Z,67.67
2019-03-31T00:13:38.618Z,69.47
2019-03-31T00:16:07.032Z,68.87
2019-03-31T00:18:35.418Z,68.24
2019-03-31T00:21:03.813Z,67.80
2019-03-31T00:23:32.217Z,67.98
2019-03-31T00:26:00.600Z,68.92
2019-03-31T00:28:29.018Z,70.16
2019-03-31T00:30:57.404Z,70.56
2019-03-31T00:33:25.791Z,70.15
2019-03-31T00:35:54.208Z,70.19
2019-03-31T00:38:22.603Z,70.35
2019-03-31T00:40:50.995Z,70.34
2019-03-31T00:43:19.409Z,70.03
2019-03-31T00:45:47.797Z,69.86
2019-03-31T00:48:16.185Z,69.53
2019-03-31T00:50:44.591Z,69.01
2019-03-31T00:53:12.980Z,67.94
2019-03-31T00:55:41.377Z,68.10
2019-03-31T00:58:09.791Z,68.97
2019-03-31T01:00:48.543Z,69.37
2019-03-31T01:03:18.815Z,69.67
2019-03-31T01:05:47.683Z,69.80
2019-03-31T01:08:16.238Z,69.70
2019-03-31T01:10:45.063Z,70.45
2019-03-31T01:13:14.466Z,69.17
2019-03-31T01:15:43.024Z,68.41
2019-03-31T01:18:12.164Z,68.63
2019-03-31T01:20:40.629Z,69.15
2019-03-31T01:23:09.357Z,69.92
2019-03-31T01:25:37.840Z,71.00
2019-03-31T01:28:06.362Z,71.28
2019-03-31T01:30:34.822Z,71.50
2019-03-31T01:33:03.412Z,71.18
2019-03-31T01:35:31.940Z,71.86
2019-03-31T01:38:00.325Z,70.69
2019-03-31T01:40:28.978Z,71.28
2019-03-31T01:42:57.364Z,70.18
2019-03-31T01:45:26.035Z,69.89
2019-03-31T01:47:54.439Z,69.83
2019-03-31T01:50:23.107Z,70.03
2019-03-31T01:52:51.486Z,71.10
2019-03-31T01:55:19.896Z,72.05
2019-03-31T01:57:48.287Z,71.83
2019-03-31T02:00:35.268Z,71.25
2019-03-31T02:03:03.934Z,71.24
2019-03-31T02:05:32.326Z,71.14
2019-03-31T02:08:01.057Z,70.52
2019-03-31T02:10:29.449Z,70.73
2019-03-31T02:12:58.235Z,70.68
2019-03-31T02:15:26.702Z,70.13
2019-03-31T02:17:55.098Z,69.30
2019-03-31T02:20:23.514Z,69.72
2019-03-31T02:22:51.904Z,70.65
2019-03-31T02:25:20.571Z,72.05
2019-03-31T02:27:48.980Z,71.82
2019-03-31T02:30:17.507Z,70.64
2019-03-31T02:32:45.899Z,70.52
2019-03-31T02:35:14.498Z,69.87
2019-03-31T02:37:42.887Z,69.75
2019-03-31T02:40:11.411Z,69.14
2019-03-31T02:42:39.825Z,68.99
2019-03-31T02:45:08.548Z,69.05
2019-03-31T02:47:36.940Z,70.24
2019-03-31T02:50:07.174Z,69.22
2019-03-31T02:52:35.558Z,69.49
2019-03-31T02:55:04.402Z,71.09
2019-03-31T02:57:33.343Z,72.24
2019-03-31T03:00:02.820Z,72.56
2019-03-31T03:02:42.203Z,72.48
2019-03-31T03:05:18.881Z,72.57
2019-03-31T03:07:37.416Z,72.79
2019-03-31T03:10:06.135Z,72.84
2019-03-31T03:12:37.573Z,72.89
2019-03-31T03:15:07.514Z,72.26
2019-03-31T03:17:35.973Z,71.35
2019-03-31T03:20:05.325Z,71.34
2019-03-31T03:22:33.722Z,70.58
2019-03-31T03:25:02.172Z,71.71
2019-03-31T03:27:30.536Z,72.29
2019-03-31T03:29:58.924Z,72.86
2019-03-31T03:32:27.314Z,73.11
2019-03-31T03:34:55.743Z,72.99
2019-03-31T03:37:24.118Z,73.24
2019-03-31T03:39:52.511Z,73.37
2019-03-31T03:42:20.923Z,73.21
2019-03-31T03:44:49.310Z,72.41
2019-03-31T03:47:17.693Z,72.90
2019-03-31T03:49:46.105Z,72.85
2019-03-31T03:52:14.496Z,71.13
2019-03-31T03:54:42.886Z,71.51
2019-03-31T03:57:11.296Z,72.09
2019-03-31T03:59:39.689Z,72.40
2019-03-31T04:02:08.067Z,73.93
2019-03-31T04:04:36.477Z,72.69
2019-03-31T04:07:04.863Z,72.49
2019-03-31T04:09:33.247Z,73.86
2019-03-31T04:12:01.657Z,73.54
2019-03-31T04:14:30.045Z,73.65
2019-03-31T04:16:58.446Z,74.07
2019-03-31T04:19:26.863Z,74.14
2019-03-31T04:21:55.251Z,74.18
2019-03-31T04:24:23.635Z,74.92
2019-03-31T04:26:52.039Z,75.45
2019-03-31T04:29:20.782Z,76.09
2019-03-31T04:31:49.171Z,75.61
2019-03-31T04:34:17.588Z,75.86
2019-03-31T04:36:45.974Z,73.01
2019-03-31T04:39:14.366Z,72.21
2019-03-31T04:41:42.779Z,72.78
2019-03-31T04:44:11.183Z,73.17
2019-03-31T04:46:39.573Z,73.41
2019-03-31T04:49:07.989Z,73.79
2019-03-31T04:51:36.372Z,73.52
2019-03-31T04:54:05.127Z,73.33
2019-03-31T04:56:33.529Z,73.77
2019-03-31T04:59:01.921Z,73.75
2019-03-31T05:01:30.386Z,73.58
2019-03-31T05:04:04.977Z,74.16
2019-03-31T05:06:28.901Z,74.43
2019-03-31T05:08:57.302Z,71.58
2019-03-31T05:11:25.778Z,71.82
2019-03-31T05:13:54.189Z,72.93
2019-03-31T05:16:22.566Z,72.12
2019-03-31T05:18:50.958Z,73.04
2019-03-31T05:21:19.368Z,73.87
2019-03-31T05:23:47.751Z,74.80
2019-03-31T05:26:16.167Z,75.32
2019-03-31T05:28:44.558Z,75.26
2019-03-31T05:31:12.942Z,75.44
2019-03-31T05:33:41.345Z,75.52
2019-03-31T05:36:09.733Z,74.83
2019-03-31T05:38:38.148Z,73.91
2019-03-31T05:41:06.537Z,73.71
2019-03-31T05:43:34.935Z,74.06
2019-03-31T05:46:03.351Z,75.75
2019-03-31T05:48:31.734Z,75.34
2019-03-31T05:51:00.119Z,74.78
2019-03-31T05:53:28.540Z,75.14
2019-03-31T05:55:56.930Z,75.32
2019-03-31T05:58:25.323Z,75.29
2019-03-31T06:00:54.063Z,75.36
2019-03-31T06:03:22.444Z,75.79
2019-03-31T06:05:50.830Z,76.72
2019-03-31T06:08:19.234Z,77.44
2019-03-31T06:10:47.630Z,76.62
2019-03-31T06:13:16.024Z,76.89
2019-03-31T06:15:44.450Z,76.81
2019-03-31T06:18:12.839Z,76.42
2019-03-31T06:20:41.225Z,76.18
2019-03-31T06:23:09.963Z,75.81
2019-03-31T06:25:38.348Z,75.54
2019-03-31T06:28:06.730Z,75.65
2019-03-31T06:30:35.135Z,75.00
2019-03-31T06:33:03.551Z,73.41
2019-03-31T06:35:31.941Z,73.37
2019-03-31T06:38:00.329Z,73.19
2019-03-31T06:40:28.746Z,72.04
2019-03-31T06:42:57.204Z,71.72
2019-03-31T06:45:25.594Z,71.92
2019-03-31T06:47:54.003Z,71.32
2019-03-31T06:50:22.391Z,70.30
2019-03-31T06:52:50.784Z,69.65
2019-03-31T06:55:19.198Z,69.39
2019-03-31T06:57:47.588Z,70.46
2019-03-31T07:00:16.223Z,66.71
2019-03-31T07:02:44.635Z,67.19
2019-03-31T07:05:13.027Z,66.83
2019-03-31T07:07:41.421Z,65.99
2019-03-31T07:10:09.920Z,63.92
2019-03-31T07:12:38.303Z,63.96
2019-03-31T07:15:08.030Z,65.37
2019-03-31T07:17:36.506Z,63.00
2019-03-31T07:20:08.303Z,61.07
2019-03-31T07:22:36.694Z,60.62
2019-03-31T07:25:07.843Z,60.34
2019-03-31T07:27:36.682Z,60.63
2019-03-31T07:30:08.422Z,59.44
2019-03-31T07:32:36.960Z,59.03
2019-03-31T07:35:18.259Z,57.94
2019-03-31T07:37:47.566Z,59.15
2019-03-31T07:40:19.150Z,57.97
2019-03-31T07:42:50.881Z,57.29
2019-03-31T07:45:18.112Z,58.70
2019-03-31T07:47:46.536Z,56.98
2019-03-31T07:50:17.723Z,55.79
2019-03-31T07:52:46.119Z,54.47
2019-03-31T07:55:16.453Z,54.54
2019-03-31T07:57:45.199Z,53.62
2019-03-31T08:00:19.262Z,53.56
2019-03-31T08:02:49.208Z,53.84
2019-03-31T08:05:32.096Z,53.05
2019-03-31T08:07:48.501Z,51.09
2019-03-31T08:10:18.618Z,50.67
2019-03-31T08:12:47.008Z,50.24
2019-03-31T08:15:15.742Z,50.03
2019-03-31T08:17:44.247Z,50.44
2019-03-31T08:20:15.038Z,48.32
2019-03-31T08:22:43.438Z,50.23
2019-03-31T08:25:13.630Z,49.91
2019-03-31T08:27:42.033Z,48.54
2019-03-31T08:30:12.764Z,48.83
2019-03-31T08:32:41.661Z,49.18
2019-03-31T08:35:10.798Z,48.10
2019-03-31T08:37:39.193Z,48.45
2019-03-31T08:40:11.847Z,47.77
2019-03-31T08:42:40.238Z,48.51
2019-03-31T08:45:09.479Z,47.92
2019-03-31T08:47:38.414Z,46.63
2019-03-31T08:50:08.040Z,48.13
2019-03-31T08:52:36.437Z,46.74
2019-03-31T08:55:05.909Z,46.22
2019-03-31T08:57:34.844Z,46.35
2019-03-31T09:00:04.978Z,46.50
2019-03-31T09:02:34.741Z,45.32
2019-03-31T09:05:04.178Z,43.89
2019-03-31T09:07:32.596Z,43.18
2019-03-31T09:10:01.096Z,43.25
2019-03-31T09:12:29.496Z,42.95
2019-03-31T09:14:57.916Z,43.23
2019-03-31T09:17:26.306Z,42.08
2019-03-31T09:19:54.701Z,42.05
2019-03-31T09:22:23.138Z,41.03
2019-03-31T09:24:51.616Z,41.06
2019-03-31T09:27:20.016Z,40.87
2019-03-31T09:29:48.878Z,40.45
2019-03-31T09:32:17.274Z,40.78
2019-03-31T09:34:45.946Z,39.90
2019-03-31T09:37:14.373Z,40.22
2019-03-31T09:39:42.779Z,38.17
2019-03-31T09:42:11.177Z,37.29
2019-03-31T09:44:39.610Z,36.56
2019-03-31T09:47:08.072Z,36.16
2019-03-31T09:49:36.476Z,35.69
2019-03-31T09:52:05.137Z,34.59
2019-03-31T09:54:33.526Z,35.02
2019-03-31T09:57:01.927Z,36.09
2019-03-31T09:59:30.479Z,36.17
2019-03-31T10:01:58.887Z,35.73
2019-03-31T10:04:27.303Z,36.54
2019-03-31T10:06:56.463Z,37.28
2019-03-31T10:09:25.502Z,35.21
2019-03-31T10:11:54.150Z,35.40
2019-03-31T10:14:22.569Z,35.37
2019-03-31T10:16:50.978Z,34.05
2019-03-31T10:19:19.382Z,33.04
2019-03-31T10:21:47.806Z,35.41
2019-03-31T10:24:16.217Z,34.61
2019-03-31T10:26:44.613Z,32.45
2019-03-31T10:29:13.169Z,32.55
2019-03-31T10:31:41.567Z,33.47
2019-03-31T10:34:09.976Z,35.06
2019-03-31T10:36:44.420Z,35.00
2019-03-31T10:39:09.365Z,36.66
2019-03-31T10:41:37.774Z,32.93
2019-03-31T10:44:06.205Z,34.99
2019-03-31T10:46:34.606Z,34.32
2019-03-31T10:49:03.009Z,32.31
2019-03-31T10:51:31.451Z,33.52
2019-03-31T10:53:59.842Z,34.19
2019-03-31T10:56:28.241Z,30.98
2019-03-31T10:58:56.733Z,30.58
2019-03-31T11:01:25.131Z,31.68
2019-03-31T11:03:53.528Z,32.53
2019-03-31T11:06:22.283Z,28.57
2019-03-31T11:08:50.682Z,30.14
2019-03-31T11:11:19.151Z,31.54
2019-03-31T11:13:47.648Z,30.35
2019-03-31T11:16:16.317Z,32.02
2019-03-31T11:18:44.715Z,31.19
2019-03-31T11:21:14.766Z,30.72
2019-03-31T11:23:43.182Z,28.79
2019-03-31T11:26:11.569Z,27.88
2019-03-31T11:28:39.995Z,27.51
2019-03-31T11:31:08.387Z,27.66
2019-03-31T11:33:36.795Z,28.64
2019-03-31T11:36:05.224Z,27.33
2019-03-31T11:38:33.614Z,29.71
2019-03-31T11:41:02.040Z,29.25
2019-03-31T11:43:30.501Z,28.17
2019-03-31T11:45:58.903Z,28.22
2019-03-31T11:48:27.319Z,28.19
2019-03-31T11:50:55.719Z,28.08
2019-03-31T11:53:24.112Z,26.84
2019-03-31T11:55:52.528Z,28.21
2019-03-31T11:58:20.920Z,28.00
2019-03-31T12:00:50.963Z,27.35
2019-03-31T12:03:19.386Z,27.97
2019-03-31T12:05:47.855Z,28.67
2019-03-31T12:08:16.249Z,28.48
2019-03-31T12:10:44.681Z,28.25
2019-03-31T12:13:13.071Z,29.11
2019-03-31T12:15:41.476Z,28.35
2019-03-31T12:18:09.890Z,28.75
2019-03-31T12:20:38.291Z,28.48
2019-03-31T12:23:06.689Z,29.10
2019-03-31T12:25:35.113Z,30.31
2019-03-31T12:28:03.510Z,29.19
2019-03-31T12:30:31.907Z,29.28
2019-03-31T12:33:00.325Z,26.77
2019-03-31T12:35:28.725Z,26.01
2019-03-31T12:37:57.114Z,27.46
2019-03-31T12:40:36.268Z,28.71
2019-03-31T12:43:05.029Z,26.76
2019-03-31T12:45:33.421Z,30.86
2019-03-31T12:48:02.197Z,27.12
2019-03-31T12:50:30.661Z,27.22
2019-03-31T12:52:59.055Z,26.26
2019-03-31T12:55:27.461Z,26.13
2019-03-31T12:57:55.859Z,28.05
2019-03-31T13:00:24.252Z,24.75
2019-03-31T13:02:52.665Z,26.66
2019-03-31T13:05:21.061Z,26.24
2019-03-31T13:07:56.371Z,27.72
2019-03-31T13:10:19.607Z,29.50
2019-03-31T13:12:48.010Z,31.81
2019-03-31T13:15:16.407Z,32.94
2019-03-31T13:17:44.837Z,32.54
2019-03-31T13:20:13.673Z,32.28
2019-03-31T13:22:45.644Z,33.25
2019-03-31T13:25:13.292Z,33.96
2019-03-31T13:27:41.682Z,34.46
2019-03-31T13:30:10.758Z,34.19
2019-03-31T13:32:39.188Z,35.89
2019-03-31T13:35:08.703Z,34.63
2019-03-31T13:37:37.189Z,33.52
2019-03-31T13:40:08.924Z,33.99
2019-03-31T13:42:37.320Z,33.61
2019-03-31T13:45:06.685Z,34.60
2019-03-31T13:47:35.167Z,34.65
2019-03-31T13:50:05.346Z,34.19
2019-03-31T13:52:33.770Z,33.82
2019-03-31T13:55:02.245Z,33.14
2019-03-31T13:57:31.883Z,33.21
2019-03-31T14:00:00.997Z,33.65
2019-03-31T14:02:29.393Z,34.36
2019-03-31T14:04:57.790Z,33.59
2019-03-31T14:07:26.676Z,34.27
2019-03-31T14:09:55.083Z,33.09
2019-03-31T14:12:23.487Z,32.95
2019-03-31T14:14:51.911Z,33.74
2019-03-31T14:17:20.312Z,33.89
2019-03-31T14:19:48.771Z,32.43
2019-03-31T14:22:17.186Z,33.68
2019-03-31T14:24:45.600Z,33.93
2019-03-31T14:27:13.974Z,33.25
2019-03-31T14:29:42.735Z,34.06
2019-03-31T14:32:11.162Z,33.42
2019-03-31T14:34:39.563Z,34.66
2019-03-31T14:37:07.978Z,34.85
2019-03-31T14:39:36.378Z,34.11
2019-03-31T14:42:04.840Z,33.20
2019-03-31T14:44:33.247Z,33.63
2019-03-31T14:47:01.671Z,33.73
2019-03-31T14:49:30.062Z,34.14
2019-03-31T14:52:01.254Z,35.03
2019-03-31T14:54:28.610Z,34.27
2019-03-31T14:56:57.016Z,34.56
2019-03-31T14:59:25.411Z,36.57
2019-03-31T15:01:53.823Z,33.44
2019-03-31T15:04:22.224Z,34.90
2019-03-31T15:06:50.648Z,34.98
2019-03-31T15:09:19.046Z,35.18
2019-03-31T15:11:47.443Z,34.12
2019-03-31T15:14:16.165Z,36.05
2019-03-31T15:16:48.090Z,37.19
2019-03-31T15:19:14.719Z,35.93
2019-03-31T15:21:44.383Z,37.51
2019-03-31T15:24:12.892Z,38.01
2019-03-31T15:26:41.324Z,38.46
2019-03-31T15:29:09.720Z,39.37
2019-03-31T15:31:38.123Z,38.97
2019-03-31T15:34:06.866Z,38.99
2019-03-31T15:36:35.268Z,38.88
2019-03-31T15:39:08.955Z,37.67
2019-03-31T15:41:36.000Z,38.98
2019-03-31T15:44:04.848Z,39.34
2019-03-31T15:46:33.289Z,39.73
2019-03-31T15:49:01.689Z,39.73
2019-03-31T15:51:30.094Z,38.33
2019-03-31T15:53:58.545Z,38.29
2019-03-31T15:56:26.944Z,38.06
2019-03-31T15:58:55.339Z,38.01
2019-03-31T16:01:23.771Z,39.22
2019-03-31T16:03:52.242Z,39.40
2019-03-31T16:06:20.647Z,38.88
2019-03-31T16:08:49.073Z,39.29
2019-03-31T16:11:17.476Z,39.05
2019-03-31T16:13:45.906Z,38.81
2019-03-31T16:16:14.485Z,40.66
2019-03-31T16:18:42.896Z,42.38
2019-03-31T16:21:12.499Z,43.06
2019-03-31T16:23:40.862Z,43.03
2019-03-31T16:26:09.267Z,44.61
2019-03-31T16:28:37.697Z,44.41
2019-03-31T16:31:06.107Z,46.20
2019-03-31T16:33:34.507Z,45.35
2019-03-31T16:36:02.959Z,45.05
2019-03-31T16:38:31.338Z,45.24
2019-03-31T16:40:59.744Z,44.95
2019-03-31T16:43:28.163Z,46.06
2019-03-31T16:45:56.574Z,46.04
2019-03-31T16:48:24.974Z,46.02
2019-03-31T16:50:53.396Z,46.28
2019-03-31T16:53:21.803Z,47.35
2019-03-31T16:55:50.214Z,44.48
2019-03-31T16:58:18.639Z,45.34
2019-03-31T17:00:47.042Z,44.84
2019-03-31T17:03:18.210Z,45.51
2019-03-31T17:05:45.584Z,47.03
2019-03-31T17:08:13.978Z,47.08
2019-03-31T17:10:42.730Z,48.10
2019-03-31T17:13:11.144Z,48.01
2019-03-31T17:15:39.552Z,47.88
2019-03-31T17:18:07.967Z,48.75
2019-03-31T17:20:36.373Z,49.81
2019-03-31T17:23:04.771Z,49.13
2019-03-31T17:25:33.205Z,48.97
2019-03-31T17:28:01.597Z,48.87
2019-03-31T17:30:30.000Z,48.44
2019-03-31T17:32:58.424Z,49.32
2019-03-31T17:35:26.834Z,49.37
2019-03-31T17:37:55.248Z,49.89
2019-03-31T17:40:24.383Z,50.04
2019-03-31T17:42:52.793Z,50.12
2019-03-31T17:45:21.202Z,51.01
2019-03-31T17:47:49.623Z,51.11
2019-03-31T17:50:18.047Z,50.99
2019-03-31T17:52:46.519Z,51.59
2019-03-31T17:55:14.916Z,50.92
2019-03-31T17:57:43.348Z,51.96
2019-03-31T18:00:12.391Z,51.27
2019-03-31T18:02:41.032Z,51.53
2019-03-31T18:05:09.594Z,52.25
2019-03-31T18:07:38.053Z,52.16
2019-03-31T18:10:19.991Z,51.85
2019-03-31T18:12:38.049Z,51.63
2019-03-31T18:15:06.690Z,50.55
2019-03-31T18:17:35.097Z,50.89
2019-03-31T18:20:04.856Z,50.66
2019-03-31T18:22:33.257Z,50.89
2019-03-31T18:25:01.681Z,50.85
2019-03-31T18:27:30.092Z,51.64
2019-03-31T18:29:58.496Z,51.65
2019-03-31T18:32:26.922Z,51.83
2019-03-31T18:34:55.337Z,52.21
2019-03-31T18:37:23.743Z,52.32
2019-03-31T18:39:52.161Z,52.47
2019-03-31T18:42:20.585Z,52.33
2019-03-31T18:44:49.037Z,52.50
2019-03-31T18:47:17.426Z,52.84
2019-03-31T18:49:45.820Z,52.58
2019-03-31T18:52:14.255Z,52.68
2019-03-31T18:55:02.303Z,52.67
2019-03-31T18:57:38.110Z,52.75
2019-03-31T19:00:17.444Z,53.00
2019-03-31T19:02:50.170Z,52.84
2019-03-31T19:05:36.644Z,52.99
2019-03-31T19:08:22.682Z,53.26
2019-03-31T19:10:58.172Z,53.62
2019-03-31T19:13:54.690Z,53.67
2019-03-31T19:16:15.656Z,54.18
2019-03-31T19:18:45.695Z,54.18
2019-03-31T19:21:15.745Z,54.87
2019-03-31T19:24:05.482Z,54.64
2019-03-31T19:26:48.114Z,54.73
2019-03-31T19:29:11.909Z,55.11
2019-03-31T19:31:58.060Z,55.53
2019-03-31T19:34:36.741Z,55.48
2019-03-31T19:37:06.784Z,55.99
2019-03-31T19:39:49.071Z,55.64
2019-03-31T19:42:21.770Z,56.51
2019-03-31T19:44:54.606Z,55.30
2019-03-31T19:47:24.681Z,55.30
2019-03-31T19:49:55.144Z,56.11
2019-03-31T19:52:41.555Z,55.92
2019-03-31T19:55:26.920Z,55.67
2019-03-31T19:58:02.641Z,55.21
2019-03-31T20:00:32.679Z,55.27
2019-03-31T20:03:05.877Z,55.30
2019-03-31T20:05:53.853Z,55.11
2019-03-31T20:08:35.828Z,55.46
2019-03-31T20:11:15.129Z,55.89
2019-03-31T20:13:48.058Z,56.29
2019-03-31T20:16:18.102Z,56.92
2019-03-31T20:19:03.398Z,57.61
2019-03-31T20:21:33.428Z,57.85
2019-03-31T20:24:12.603Z,57.98
2019-03-31T20:26:48.572Z,59.01
2019-03-31T20:29:18.604Z,59.02
2019-03-31T20:31:48.674Z,59.66
2019-03-31T20:34:18.720Z,60.32
2019-03-31T20:36:54.759Z,60.74
2019-03-31T20:39:25.162Z,60.60
2019-03-31T20:42:00.701Z,60.42
2019-03-31T20:44:29.092Z,60.42
2019-03-31T20:46:57.527Z,60.77
2019-03-31T20:49:25.926Z,60.92
2019-03-31T20:51:54.329Z,61.13
2019-03-31T20:54:22.760Z,61.11
2019-03-31T20:56:51.162Z,61.25
2019-03-31T20:59:19.561Z,61.77
2019-03-31T21:01:47.980Z,62.01
2019-03-31T21:04:16.377Z,62.13
2019-03-31T21:06:44.782Z,62.06
2019-03-31T21:09:13.201Z,62.38
2019-03-31T21:11:41.602Z,62.62
2019-03-31T21:14:10.004Z,62.47
2019-03-31T21:16:38.447Z,62.48
2019-03-31T21:19:06.850Z,62.69
2019-03-31T21:21:35.243Z,62.68
2019-03-31T21:24:03.655Z,62.92
2019-03-31T21:26:32.367Z,63.23
2019-03-31T21:29:00.762Z,62.90
2019-03-31T21:31:29.339Z,63.20
2019-03-31T21:33:57.729Z,63.05
2019-03-31T21:36:26.198Z,63.37
2019-03-31T21:38:54.539Z,63.27
2019-03-31T21:41:22.942Z,63.03
2019-03-31T21:43:51.341Z,63.31
2019-03-31T21:46:19.778Z,63.39
2019-03-31T21:48:48.171Z,63.54
2019-03-31T21:51:16.571Z,63.46
2019-03-31T21:53:44.983Z,63.67
2019-03-31T21:56:13.387Z,63.76
2019-03-31T21:58:41.790Z,63.87
2019-03-31T22:01:10.308Z,63.80
2019-03-31T22:03:38.702Z,63.97
2019-03-31T22:06:07.112Z,63.95
2019-03-31T22:08:35.785Z,64.00
2019-03-31T22:11:04.194Z,64.23
2019-03-31T22:13:32.616Z,64.33
2019-03-31T22:16:01.026Z,64.36
2019-03-31T22:18:29.416Z,64.22
2019-03-31T22:20:57.848Z,64.20
2019-03-31T22:23:26.242Z,64.45
2019-03-31T22:25:54.643Z,64.45
2019-03-31T22:28:23.050Z,64.41
2019-03-31T22:30:51.451Z,64.47
2019-03-31T22:33:19.867Z,64.55
2019-03-31T22:36:06.362Z,64.71
2019-03-31T22:38:34.780Z,65.01
2019-03-31T22:41:03.171Z,64.72
2019-03-31T22:43:31.562Z,64.62
2019-03-31T22:46:00.122Z,64.58
2019-03-31T22:48:28.519Z,64.77
2019-03-31T22:50:56.922Z,64.80
2019-03-31T22:53:25.360Z,64.85
2019-03-31T22:55:53.759Z,64.90
2019-03-31T22:58:22.151Z,64.97
2019-03-31T23:00:50.850Z,64.74
2019-03-31T23:03:19.240Z,64.37
2019-03-31T23:05:47.645Z,64.36
2019-03-31T23:08:16.067Z,64.15
2019-03-31T23:10:44.735Z,64.61
2019-03-31T23:13:13.187Z,64.23
2019-03-31T23:15:41.581Z,64.42
2019-03-31T23:18:09.975Z,64.47
2019-03-31T23:20:38.396Z,64.43
2019-03-31T23:23:06.801Z,64.54
2019-03-31T23:25:35.189Z,64.60
2019-03-31T23:28:03.613Z,64.50
2019-03-31T23:30:32.011Z,64.57
2019-03-31T23:33:00.406Z,64.68
2019-03-31T23:35:28.833Z,64.80
2019-03-31T23:37:57.232Z,64.75
2019-03-31T23:40:25.625Z,64.76
2019-03-31T23:42:54.383Z,64.73
2019-03-31T23:45:22.735Z,65.32
2019-03-31T23:47:51.129Z,64.81
2019-03-31T23:50:19.555Z,64.75
2019-03-31T23:52:47.954Z,64.74
2019-03-31T23:55:16.359Z,64.61
2019-03-31T23:57:45.044Z,64.66
